LESB Airport Information

Runway Information
Runway 06 Length 3281 ft width 72 ft
Elevation 0 ft Threshold 0 ft Heading 49
Runway 24 Length 3281 ft Width 72 ft
Elevation 0 ft Threshold 0 ft Heading 229
Airport Frequencies
Type APP Name PALMA APP Frequency 119.4 MHZ
Type OPS Name PALMA OPS Frequency 130.25 MHZ
Type TWR Name PALMA TWR Frequency 118.3 MHZ
Airport Navaids
Airport Weather Information & NOTAM
ADDS - METARS form results

(1200 UTC 23 January 2019)
Data provider http://aviationweather.gov/metar/data/
 
METAR text: LESB 231130Z AUTO 29007KT 230V330 9999 FEW041/// SCT047/// OVC054/// 12/08 Q0999
Conditions at: LESB (MALLORCA SON BON, ES) observed 1130 UTC 23 January 2019
Temperature: 12.0°C (54°F)
Dewpoint: 8.0°C (46°F) [RH = 76%]
Pressure (altimeter): 29.50 inches Hg (999.0 mb)
Winds: from the WNW (290 degrees) at 8 MPH (7 knots; 3.6 m/s)
Visibility: 6 or more miles (10+ km)
Ceiling: 5400 feet AGL
Clouds: few clouds at 4100 feet AGL
scattered clouds at 4700 feet AGL
overcast cloud deck at 5400 feet AGL
Weather: no significant weather observed at this time